• Join FlightAware (Why Join?)
  • Login
  • US Flag 
07:31AM EDT


 

Airport Tracker/Info


-or-


 

Live Flight TrackerFlight Track Log ✈ AFR1321 ✈ 06-Jul-2013 ✈ LLBG / TLV - LFPG / CDG

Flight Track Log - Related Links

Times and Time Zones

All times are in EDT time to prevent confusion due to time zone crossing. See the AFR1321 flight status page for this flight to view local times or setup timezone preferences in your user account.

Time Position Orientation Groundspeed Altitude Reporting Facility
EDT Latitude Longitude Course Direction KTS MPH feet Rate Location/Type
01:20AM 32.0852 34.7864 315° West  Level Estimated
01:21AM 32.1609 34.6957 315° West  Level Estimated
01:22AM 32.2364 34.6048 315° West  Level Estimated
01:23AM 32.3119 34.5138 314° West  Level Estimated
01:24AM 32.3874 34.4227 314° West  Level Estimated
01:25AM 32.4628 34.3314 314° West  Level Estimated
01:25AM 32.1060 34.1100 314° West 374 430 15,500  Level FlightAware
01:25AM 32.1390 34.0420 300° West 384 442 16,300 1,260 Climbing FlightAware
01:26AM 32.5381 34.2400 314° West  Level Estimated
01:26AM 32.1750 33.9660 299° West 391 450 17,200  Level FlightAware
01:27AM 32.2090 33.8950 300° West 393 452 18,200 1,500 Climbing FlightAware
01:28AM 32.2470 33.8150 299° West 398 458 19,200 1,380 Climbing FlightAware
01:28AM 32.2890 33.7250 299° West 400 460 20,300 1,200 Climbing FlightAware
01:29AM 32.3250 33.6510 300° West 405 466 21,000 1,020 Climbing FlightAware
01:30AM 32.3580 33.5790 298° West 409 471 21,700 960 Climbing FlightAware
01:31AM 32.4390 33.4070 299° West 421 484 23,100 900 Climbing FlightAware
01:32AM 32.4820 33.3160 299° West 427 491 23,700 840 Climbing FlightAware
01:32AM 32.5190 33.2360 299° West 430 495 24,300 960 Climbing FlightAware
01:33AM 32.5620 33.1440 299° West 430 495 25,100 1,020 Climbing FlightAware
01:34AM 32.6000 33.0620 299° West 432 497 25,800 840 Climbing FlightAware
01:34AM 32.6370 32.9840 299° West 436 502 26,200 780 Climbing FlightAware
01:35AM 32.6730 32.9060 299° West 436 502 26,800 660 Climbing FlightAware
01:36AM 32.7160 32.8110 298° West 443 510 27,200 540 Climbing FlightAware
01:36AM 32.7520 32.7350 299° West 447 514 27,600 600 Climbing FlightAware
01:37AM 32.7910 32.6490 298° West 446 513 28,000 600 Climbing FlightAware
01:38AM 32.8340 32.5560 299° West 449 517 28,500 660 Climbing FlightAware
01:38AM 32.8720 32.4760 300° West 456 525 28,900 660 Climbing FlightAware
01:39AM 32.9310 32.3780 306° West 454 522 29,400 600 Climbing FlightAware
01:40AM 32.9780 32.2990 305° West 458 527 29,800 600 Climbing FlightAware
01:41AM 33.0280 32.2170 306° West 459 528 30,200 900 Climbing FlightAware
01:41AM 33.0730 32.1420 306° West 449 517 31,000 960 Climbing FlightAware
01:42AM 33.1280 32.0510 306° West 449 517 31,500 540 Climbing FlightAware
01:43AM 33.1770 31.9690 306° West 453 521 31,800 300 Climbing FlightAware
01:43AM 33.2340 31.8740 306° West 450 518 32,000 120 Climbing FlightAware
01:44AM 33.2810 31.7940 305° West 448 516 32,000  Level FlightAware
01:45AM 33.3470 31.6830 305° West 447 514 32,000  Level FlightAware
01:46AM 33.3950 31.6030 306° West 450 518 32,000  Level FlightAware
01:46AM 33.4500 31.5100 305° West 451 519 32,000  Level FlightAware
01:47AM 33.4980 31.4280 305° West 451 519 32,000  Level FlightAware
01:48AM 33.5510 31.3380 305° West 451 519 32,000  Level FlightAware
01:48AM 33.6010 31.2530 305° West 450 518 32,000  Level FlightAware
01:49AM 33.6480 31.1720 305° West 449 517 32,000  Level FlightAware
01:50AM 33.6950 31.0930 306° West 448 516 32,000  Level FlightAware
01:50AM 33.7510 30.9970 305° West 448 516 32,000  Level FlightAware
01:51AM 33.8010 30.9110 305° West 446 513 32,000  Level FlightAware
01:52AM 33.8460 30.8330 305° West 441 507 32,000  Level FlightAware
01:53AM 33.8930 30.7520 305° West 439 505 32,000 60 Level FlightAware
01:53AM 33.9540 30.6470 305° West 447 514 32,100 240 Climbing FlightAware
01:54AM 33.9950 30.5750 304° West 449 517 32,400 1,140 Climbing FlightAware
01:55AM 34.0420 30.4940 305° West 429 494 33,600 960 Climbing FlightAware
01:55AM 34.0940 30.4040 305° West 430 495 33,800 240 Climbing FlightAware
01:56AM 34.1410 30.3220 305° West 434 499 34,000 120 Climbing FlightAware
01:57AM 34.1900 30.2350 304° West 436 502 34,000  Level FlightAware
01:57AM 34.2250 30.1690 303° West 436 502 34,000  Level FlightAware
01:58AM 34.2590 30.1070 304° West 436 502 34,000  Level FlightAware
01:59AM 34.3190 30.0050 305° West 436 502 34,000  Level FlightAware
01:59AM 34.3540 29.9390 303° West 436 502 34,000  Level FlightAware
02:00AM 34.4060 29.8410 303° West 436 502 34,000  Level FlightAware
02:01AM 34.4500 29.7590 303° West 436 502 34,000  Level FlightAware
02:02AM 34.4850 29.6950 304° West 436 502 34,000  Level FlightAware
02:03AM 34.5300 29.6110 303° West 436 502 34,000  Level FlightAware
02:03AM 34.5630 29.5480 302° West 436 502 34,000  Level FlightAware
02:04AM 34.6080 29.4640 303° West 436 502 34,000  Level FlightAware
02:05AM 34.7290 29.2740 308° West 439 505 34,000  Level FlightAware
02:05AM 34.7660 29.2060 304° West 438 504 34,000  Level FlightAware
02:06AM 34.8180 29.1120 304° West 436 502 34,000  Level FlightAware
02:07AM 34.8620 29.0330 304° West 434 499 34,000  Level FlightAware
02:07AM 34.9010 28.9610 303° West 433 498 34,000  Level FlightAware
02:08AM 34.9400 28.8900 304° West 432 497 34,000  Level FlightAware
02:09AM 34.9960 28.7880 304° West 430 495 34,000  Level FlightAware
02:09AM 35.0380 28.7110 304° West 426 490 34,000  Level FlightAware
02:10AM 35.0860 28.6230 304° West 425 489 34,000  Level FlightAware
02:11AM 35.1260 28.5490 303° West 427 491 34,000  Level FlightAware
02:11AM 35.1800 28.4500 304° West 424 488 34,000  Level FlightAware
02:12AM 35.2250 28.3650 303° West 423 487 34,000  Level FlightAware
02:13AM 35.2680 28.2860 304° West 423 487 34,000  Level FlightAware
02:13AM 35.3150 28.1980 303° West 423 487 34,000  Level FlightAware
02:14AM 35.3590 28.1170 304° West 424 488 34,000  Level FlightAware
02:15AM 35.4190 28.0030 303° West 424 488 34,000  Level FlightAware
02:16AM 35.4920 27.8670 303° West 424 488 34,000  Level FlightAware
02:17AM 35.5470 27.7600 302° West 425 489 34,000  Level FlightAware
02:18AM 35.5960 27.6690 304° West 425 489 34,000  Level FlightAware
02:19AM 35.6510 27.5620 302° West 425 489 34,000  Level FlightAware
02:20AM 35.7240 27.4260 303° West 426 490 34,000  Level FlightAware
02:21AM 35.7670 27.3440 303° West 426 490 34,000  Level FlightAware
02:21AM 35.8070 27.2690 303° West 426 490 34,000  Level FlightAware
02:22AM 35.8500 27.1870 303° West 426 490 34,000  Level FlightAware
02:23AM 35.9150 27.0610 303° West 424 488 34,000  Level FlightAware
02:23AM 35.9460 27.0020 303° West 424 488 34,000  Level FlightAware
02:24AM 35.9870 26.9210 302° West 424 488 34,000  Level FlightAware
02:25AM 36.0400 26.8200 303° West 422 486 34,000  Level FlightAware
02:25AM 36.0800 26.7410 302° West 421 484 34,000  Level FlightAware
02:26AM 36.1250 26.6540 303° West 419 482 34,000  Level FlightAware
02:27AM 36.1690 26.5690 303° West 418 481 34,000  Level FlightAware
02:27AM 36.2060 26.4950 302° West 419 482 34,000  Level FlightAware
02:28AM 36.2450 26.4190 302° West 420 483 34,000  Level FlightAware
02:29AM 36.2950 26.3200 302° West 419 482 34,000  Level FlightAware
02:30AM 36.3560 26.2010 303° West 417 480 34,000  Level FlightAware
02:31AM 36.3990 26.1170 302° West 417 480 34,000  Level FlightAware
02:31AM 36.4440 26.0280 302° West 417 480 34,000  Level FlightAware
02:32AM 36.4840 25.9480 302° West 414 476 34,000  Level FlightAware
02:33AM 36.5310 25.8540 302° West 411 473 34,000  Level FlightAware
02:33AM 36.5690 25.7770 302° West 409 471 34,000  Level FlightAware
02:34AM 36.6140 25.6860 302° West 410 472 34,000  Level FlightAware
02:35AM 36.6530 25.6080 302° West 410 472 34,000  Level FlightAware
02:35AM 36.6900 25.5340 302° West 410 472 34,000  Level FlightAware
02:36AM 36.7320 25.4510 302° West 410 472 34,000  Level FlightAware
02:37AM 36.7730 25.3660 301° West 410 472 34,000  Level FlightAware
02:37AM 36.8130 25.2850 302° West 411 473 34,000  Level FlightAware
02:38AM 36.8580 25.1950 302° West 413 475 34,000  Level FlightAware
02:39AM 36.8960 25.1170 301° West 415 478 34,000  Level FlightAware
02:40AM 36.9460 25.0230 304° West 419 482 34,000  Level FlightAware
02:40AM 36.9800 24.9590 304° West 419 482 34,000  Level FlightAware
02:41AM 37.0280 24.8710 304° West 421 484 34,000  Level FlightAware
02:42AM 37.0720 24.7890 304° West 422 486 34,000  Level FlightAware
02:42AM 37.1130 24.7140 304° West 423 487 34,000  Level FlightAware
02:43AM 37.1570 24.6320 304° West 426 490 34,000  Level FlightAware
02:44AM 37.2030 24.5470 304° West 426 490 34,000  Level FlightAware
02:44AM 37.2480 24.4630 304° West 424 488 34,000  Level FlightAware
02:45AM 37.2890 24.3860 304° West 423 487 34,000  Level FlightAware
02:46AM 37.3360 24.2960 303° West 421 484 34,000  Level FlightAware
02:46AM 37.3750 24.2230 304° West 421 484 34,000 120 Level FlightAware
02:47AM 37.4180 24.1430 304° West 421 484 34,200 420 Climbing FlightAware
02:48AM 37.4650 24.0540 304° West 423 487 34,600 480 Climbing FlightAware
02:48AM 37.5020 23.9830 303° West 422 486 34,900 900 Climbing FlightAware
02:49AM 37.5500 23.8930 304° West 409 471 35,800 780 Climbing FlightAware
02:50AM 37.5920 23.8130 304° West 412 474 36,000 120 Climbing FlightAware
02:50AM 37.6270 23.7450 303° West 420 483 36,000  Level FlightAware
02:51AM 37.6700 23.6640 304° West 427 491 36,000  Level FlightAware
02:52AM 37.7230 23.5740 307° West 427 491 36,000  Level FlightAware
02:52AM 37.7750 23.4860 307° West 426 490 36,000  Level FlightAware
02:53AM 37.8200 23.4100 307° West 425 489 36,000  Level FlightAware
02:54AM 37.8710 23.3220 306° West 426 490 36,000  Level FlightAware
02:54AM 37.9190 23.2410 307° West 427 491 36,000  Level FlightAware
02:55AM 37.9520 23.1850 307° West 427 491 36,000  Level FlightAware
02:56AM 38.0030 23.0970 306° West 427 491 36,000  Level FlightAware
02:56AM 38.0530 23.0110 306° West 428 493 36,000  Level FlightAware
02:57AM 38.1030 22.9240 306° West 427 491 36,000  Level FlightAware
02:58AM 38.1520 22.8400 307° West 426 490 36,000  Level FlightAware
02:58AM 38.1990 22.7580 306° West 425 489 36,000  Level FlightAware
02:59AM 38.2460 22.6770 306° West 423 487 36,000  Level FlightAware
02:59AM 38.2740 22.6280 306° West 422 486 36,000  Level FlightAware
03:00AM 38.3420 22.5100 306° West 423 487 36,000  Level FlightAware
03:01AM 38.3840 22.4360 306° West 425 489 36,000  Level FlightAware
03:02AM 38.4380 22.3420 306° West 426 490 36,000  Level FlightAware
03:02AM 38.4880 22.2540 306° West 427 491 36,000  Level FlightAware
03:03AM 38.5370 22.1670 306° West 428 493 36,000  Level FlightAware
03:04AM 38.5830 22.0860 306° West 427 491 36,000  Level FlightAware
03:05AM 38.6340 21.9950 306° West 426 490 36,000  Level FlightAware
03:05AM 38.6790 21.9150 306° West 425 489 36,000  Level FlightAware
03:06AM 38.7310 21.8240 306° West 426 490 36,000  Level FlightAware
03:07AM 38.7740 21.7460 305° West 430 495 36,000  Level FlightAware
03:08AM 38.8420 21.6240 306° West 434 499 36,000  Level FlightAware
03:08AM 38.8820 21.5520 306° West 435 501 36,000  Level FlightAware
03:09AM 38.9260 21.4720 305° West 435 501 36,000  Level FlightAware
03:10AM 38.9800 21.3760 306° West 433 498 36,000  Level FlightAware
03:10AM 39.0190 21.3060 306° West 429 494 36,000  Level FlightAware
03:11AM 39.0680 21.2170 305° West 428 493 36,000  Level FlightAware
03:12AM 39.1170 21.1270 305° West 428 493 36,000  Level FlightAware
03:12AM 39.1590 21.0500 305° West 430 495 36,000  Level FlightAware
03:13AM 39.2090 20.9580 305° West 430 495 36,000  Level FlightAware
03:14AM 39.2610 20.8620 305° West 430 495 36,000  Level FlightAware
03:14AM 39.3070 20.7780 305° West 430 495 36,000  Level FlightAware
03:15AM 39.3540 20.6910 305° West 432 497 36,000  Level FlightAware
03:16AM 39.3960 20.6140 305° West 433 498 36,000  Level FlightAware
03:16AM 39.4470 20.5200 305° West 434 499 36,000  Level FlightAware
03:17AM 39.4900 20.4390 305° West 433 498 36,000  Level FlightAware
03:18AM 39.5310 20.3630 305° West 430 495 36,000  Level FlightAware
03:18AM 39.5810 20.2690 305° West 431 496 36,000  Level FlightAware
03:19AM 39.6270 20.1830 305° West 432 497 36,000  Level FlightAware
03:20AM 39.6770 20.0880 304° West 434 499 36,000  Level FlightAware
03:20AM 39.7230 20.0020 305° West 435 501 36,000  Level FlightAware
03:21AM 39.7710 19.9110 304° West 437 503 36,000  Level FlightAware
03:22AM 39.8140 19.8290 304° West 438 504 36,000  Level FlightAware
03:22AM 39.8550 19.7510 304° West 438 504 36,000  Level FlightAware
03:23AM 39.9040 19.6580 305° West 437 503 36,000  Level FlightAware
03:24AM 39.9500 19.5700 304° West 439 505 36,000  Level FlightAware
03:24AM 39.9890 19.4950 304° West 439 505 36,000  Level FlightAware
03:25AM 40.0360 19.4040 304° West 439 505 36,000  Level FlightAware
03:26AM 40.0860 19.3080 304° West 437 503 36,000  Level FlightAware
03:27AM 40.1330 19.2180 304° West 436 502 36,000  Level FlightAware
03:27AM 40.1780 19.1300 304° West 436 502 36,000  Level FlightAware
03:28AM 40.2240 19.0420 304° West 435 501 36,000  Level FlightAware
03:29AM 40.2720 18.9600 308° West 434 499 36,000  Level FlightAware
03:29AM 40.3260 18.8690 308° West 430 495 36,000  Level FlightAware
03:30AM 40.3810 18.7770 308° West 427 491 36,000  Level FlightAware
03:31AM 40.4240 18.7030 307° West 427 491 36,000  Level FlightAware
03:31AM 40.4790 18.6090 308° West 428 493 36,000  Level FlightAware
03:32AM 40.5230 18.5330 307° West 429 494 36,000  Level FlightAware
03:33AM 40.5840 18.4290 308° West 431 496 36,000  Level FlightAware
03:33AM 40.6340 18.3430 307° West 432 497 36,000  Level FlightAware
03:34AM 40.6760 18.2710 308° West 432 497 36,000  Level FlightAware
03:35AM 40.7330 18.1730 308° West 431 496 36,000  Level FlightAware
03:36AM 40.7910 18.0720 307° West 431 496 36,000  Level FlightAware
03:36AM 40.8310 18.0020 307° West 432 497 36,000  Level FlightAware
03:37AM 40.8830 17.9110 307° West 433 498 36,000  Level FlightAware
03:38AM 40.9370 17.8170 307° West 435 501 36,000  Level FlightAware
03:38AM 40.9780 17.7450 307° West 435 501 36,000  Level FlightAware
03:39AM 41.0280 17.6570 307° West 435 501 36,000  Level FlightAware
03:39AM 41.0740 17.5760 307° West 434 499 36,000  Level FlightAware
03:40AM 41.1290 17.4790 307° West 431 496 36,000  Level FlightAware
03:41AM 41.1800 17.3880 307° West 431 496 36,000  Level FlightAware
03:42AM 41.2320 17.2970 307° West 430 495 36,000  Level FlightAware
03:42AM 41.2790 17.2110 306° West 431 496 36,000  Level FlightAware
03:43AM 41.3220 17.1360 307° West 431 496 36,000  Level FlightAware
03:44AM 41.3720 17.0450 306° West 431 496 36,000  Level FlightAware
03:44AM 41.4200 16.9590 307° West 433 498 36,000  Level FlightAware
03:45AM 41.4630 16.8820 307° West 435 501 36,000  Level FlightAware
03:46AM 41.5220 16.7760 307° West 438 504 36,000  Level FlightAware
03:46AM 41.5690 16.6900 306° West 440 506 36,000  Level FlightAware
03:47AM 41.6230 16.5920 306° West 439 505 36,000  Level FlightAware
03:48AM 41.6720 16.5020 306° West 437 503 36,000  Level FlightAware
03:48AM 41.7140 16.4260 307° West 438 504 36,000  Level FlightAware
03:49AM 41.7530 16.3530 306° West 438 504 36,000  Level FlightAware
03:50AM 41.8020 16.2640 306° West 438 504 36,000  Level FlightAware
03:51AM 41.8670 16.1450 306° West 438 504 36,000  Level FlightAware
03:51AM 41.9130 16.0590 306° West 438 504 36,000  Level FlightAware
03:52AM 41.9670 15.9590 306° West 441 507 36,000  Level FlightAware
03:53AM 42.0120 15.8740 305° West 442 509 36,000  Level FlightAware
03:53AM 42.0620 15.7800 306° West 440 506 36,000  Level FlightAware
03:54AM 42.1170 15.6770 306° West 440 506 36,000  Level FlightAware
03:55AM 42.1760 15.5680 306° West 440 506 36,000  Level FlightAware
03:56AM 42.2290 15.4660 305° West 440 506 36,000  Level FlightAware
03:56AM 42.2790 15.3730 306° West 438 504 36,000  Level FlightAware
03:57AM 42.3260 15.2830 305° West 436 502 36,000  Level FlightAware
03:58AM 42.3700 15.1990 305° West 436 502 36,000  Level FlightAware
03:58AM 42.4160 15.1110 305° West 436 502 36,000  Level FlightAware
03:59AM 42.4630 15.0200 305° West 434 499 36,000  Level FlightAware
04:00AM 42.5160 14.9190 305° West 435 501 36,000  Level FlightAware
04:00AM 42.5600 14.8330 305° West 430 495 36,000  Level FlightAware
04:01AM 42.6120 14.7340 306° West 431 496 36,000  Level FlightAware
04:02AM 42.6580 14.6440 305° West 431 496 36,000  Level FlightAware
04:02AM 42.6980 14.5660 305° West 432 497 36,000  Level FlightAware
04:03AM 42.7400 14.4850 305° West 432 497 36,000  Level FlightAware
04:04AM 42.7970 14.3720 305° West 435 501 36,000  Level FlightAware
04:05AM 42.8440 14.2810 305° West 441 507 36,000  Level FlightAware
04:05AM 42.8890 14.1920 305° West 443 510 36,000  Level FlightAware
04:06AM 42.9340 14.1030 305° West 445 512 36,000  Level FlightAware
04:07AM 42.9840 14.0020 304° West 446 513 36,000  Level FlightAware
04:07AM 43.0340 13.9040 305° West 446 513 36,000  Level FlightAware
04:08AM 43.1060 13.7790 308° West 442 509 36,000  Level FlightAware
04:09AM 43.1650 13.6830 310° West 442 509 36,000  Level FlightAware
04:10AM 43.2380 13.5640 310° West 441 507 36,000  Level FlightAware
04:11AM 43.3210 13.4290 310° West 36,000  Level FlightAware
04:12AM 43.3740 13.3420 310° West 438 504 36,000  Level FlightAware
04:12AM 43.4270 13.2550 310° West 437 503 36,000  Level FlightAware
04:13AM 43.4800 13.1670 310° West 435 501 36,000  Level FlightAware
04:14AM 43.5360 13.0730 309° West 433 498 36,000  Level FlightAware
04:14AM 43.5890 12.9860 310° West 435 501 36,000  Level FlightAware
04:15AM 43.6520 12.8810 310° West 431 496 36,000  Level FlightAware
04:16AM 43.7110 12.7830 310° West 432 497 36,000  Level FlightAware
04:17AM 43.7560 12.7070 309° West 432 497 36,000  Level FlightAware
04:17AM 43.8210 12.5980 310° West 432 497 36,000  Level FlightAware
04:18AM 43.8640 12.5250 309° West 432 497 36,000  Level FlightAware
04:19AM 43.9070 12.4520 309° West 430 495 36,000  Level FlightAware
04:19AM 43.9660 12.3510 309° West 430 495 36,000  Level FlightAware
04:20AM 44.0180 12.2630 309° West 429 494 36,000  Level FlightAware
04:21AM 44.0710 12.1740 310° West 429 494 36,000  Level FlightAware
04:21AM 44.1280 12.0750 309° West 431 496 36,000  Level FlightAware
04:22AM 44.1760 11.9930 309° West 432 497 36,000  Level FlightAware
04:23AM 44.2260 11.9060 309° West 431 496 36,000  Level FlightAware
04:23AM 44.2750 11.8210 309° West 431 496 36,000  Level FlightAware
04:24AM 44.3350 11.7180 309° West 431 496 36,000  Level FlightAware
04:25AM 44.3800 11.6400 309° West 429 494 36,000  Level FlightAware
04:26AM 44.4400 11.5340 308° West 429 494 36,000  Level FlightAware
04:26AM 44.4900 11.4480 309° West 427 491 36,000  Level FlightAware
04:27AM 44.5380 11.3630 308° West 426 490 36,000  Level FlightAware
04:28AM 44.5940 11.2650 309° West 425 489 36,000  Level FlightAware
04:28AM 44.6430 11.1790 309° West 425 489 36,000  Level FlightAware
04:29AM 44.6970 11.0820 308° West 426 490 36,000  Level FlightAware
04:30AM 44.7500 10.9870 308° West 428 493 36,000  Level FlightAware
04:30AM 44.7900 10.9080 306° West 429 494 36,000  Level FlightAware
04:31AM 44.8370 10.8080 304° West 427 491 36,000  Level FlightAware
04:32AM 44.8840 10.7090 304° West 425 489 36,000  Level FlightAware
04:33AM 44.9260 10.6180 303° West 424 488 36,000  Level FlightAware
04:33AM 44.9690 10.5250 303° West 425 489 36,000  Level FlightAware
04:34AM 45.0130 10.4300 303° West 420 483 36,000  Level FlightAware
04:35AM 45.0610 10.3270 303° West 420 483 36,000  Level FlightAware
04:35AM 45.1020 10.2370 303° West 423 487 36,000  Level FlightAware
04:36AM 45.1470 10.1400 303° West 424 488 36,000  Level FlightAware
04:37AM 45.1890 10.0470 303° West 427 491 36,000  Level FlightAware
04:37AM 45.2420 9.9310 303° West 428 493 36,000 60 Level FlightAware
04:38AM 45.2850 9.8360 303° West 427 491 36,100  Climbing FlightAware
04:39AM 45.3340 9.7290 303° West 425 489 36,000 -60 Descending FlightAware
04:40AM 45.3940 9.5950 303° West 422 486 36,000  Level FlightAware
04:41AM 45.4400 9.4910 302° West 422 486 36,000  Level FlightAware
04:41AM 45.4800 9.4030 303° West 421 484 36,000  Level FlightAware
04:42AM 45.5230 9.3060 302° West 422 486 36,000  Level FlightAware
04:43AM 45.5610 9.2190 302° West 423 487 36,000  Level FlightAware
04:43AM 45.6070 9.1170 303° West 425 489 36,000  Level FlightAware
04:44AM 45.6620 8.9920 302° West 425 489 36,000  Level FlightAware
04:45AM 45.7030 8.8980 302° West 425 489 36,000  Level FlightAware
04:45AM 45.7460 8.7980 302° West 425 489 36,000  Level FlightAware
04:46AM 45.7930 8.6910 302° West 424 488 36,000  Level FlightAware
04:47AM 45.8330 8.5970 301° West 423 487 36,000  Level FlightAware
04:48AM 45.8710 8.4890 297° West 425 489 36,000  Level FlightAware
04:48AM 45.9050 8.3890 296° West 424 488 36,000  Level FlightAware
04:49AM 45.9430 8.2740 295° West 422 486 36,000  Level FlightAware
04:50AM 45.9750 8.1800 296° West 421 484 36,000  Level FlightAware
04:50AM 46.0140 8.0630 296° West 420 483 36,000  Level FlightAware
04:51AM 46.0450 7.9690 295° West 419 482 36,000  Level FlightAware
04:52AM 46.0810 7.8600 295° West 419 482 36,000  Level FlightAware
04:52AM 46.1190 7.7450 296° West 417 480 36,000  Level FlightAware
04:53AM 46.1490 7.6410 293° West 417 480 36,000  Level FlightAware
04:54AM 46.1740 7.5320 288° West 416 479 36,000  Level FlightAware
04:55AM 46.1990 7.4270 289° West 415 478 36,000  Level FlightAware
04:55AM 46.2250 7.3200 289° West 415 478 36,000  Level FlightAware
04:56AM 46.2540 7.1940 288° West 414 476 36,000  Level FlightAware
04:57AM 46.2770 7.0970 289° West 413 475 36,000  Level FlightAware
04:57AM 46.3030 6.9840 288° West 413 475 36,000  Level FlightAware
04:58AM 46.3270 6.8810 289° West 413 475 36,000  Level FlightAware
04:59AM 46.3590 6.7840 296° West 405 466 36,000  Level FlightAware
04:59AM 46.4020 6.6890 303° West 402 463 36,000  Level FlightAware
05:00AM 46.4420 6.5970 302° West 401 461 36,000  Level FlightAware
05:01AM 46.4780 6.5140 302° West 401 461 36,000  Level FlightAware
05:01AM 46.5170 6.4240 302° West 400 460 36,000  Level FlightAware
05:02AM 46.5540 6.3390 302° West 401 461 36,000  Level FlightAware
05:03AM 46.5980 6.2370 302° West 400 460 36,000  Level FlightAware
05:03AM 46.6400 6.1380 302° West 398 458 36,000  Level FlightAware
05:04AM 46.6790 6.0480 302° West 397 457 36,000  Level FlightAware
05:05AM 46.7240 5.9420 302° West 379 436 36,000  Level FlightAware
05:06AM 46.7610 5.8550 302° West 376 433 36,000  Level FlightAware
05:06AM 46.7950 5.7810 304° West 376 433 36,000  Level FlightAware
05:07AM 46.8580 5.6960 317° Northwest 372 428 36,000  Level FlightAware
05:08AM 46.9180 5.6450 330° Northwest 372 428 36,000 -300 Level FlightAware
05:08AM 46.9840 5.5920 331° Northwest 371 427 35,600 -780 Descending FlightAware
05:09AM 47.0410 5.5460 331° Northwest 372 428 35,000 -960 Descending FlightAware
05:10AM 47.1260 5.4780 331° Northwest 377 434 34,100 -960 Descending FlightAware
05:11AM 47.2210 5.4000 331° Northwest 371 427 33,100 -1,020 Descending FlightAware
05:12AM 47.2840 5.3490 331° Northwest 372 428 32,400 -1,080 Descending FlightAware
05:12AM 47.3450 5.2990 331° Northwest 369 425 31,700 -1,020 Descending FlightAware
05:13AM 47.4180 5.2400 331° Northwest 368 423 30,900 -1,020 Descending FlightAware
05:14AM 47.4790 5.1890 331° Northwest 368 423 30,200 -1,020 Descending FlightAware
05:14AM 47.5260 5.1360 323° Northwest 366 421 29,600 -960 Descending FlightAware
05:15AM 47.5850 5.0550 317° Northwest 366 421 28,900 -1,020 Descending FlightAware
05:16AM 47.6380 4.9830 318° Northwest 364 419 28,200 -720 Descending FlightAware
05:17AM 47.6850 4.9200 318° Northwest 358 412 28,000 -180 Descending FlightAware
05:17AM 47.7320 4.8550 317° Northwest 355 409 28,000  Level FlightAware
05:18AM 47.7880 4.7790 318° Northwest 355 409 28,000  Level FlightAware
05:19AM 47.8440 4.7040 318° Northwest 355 409 28,000  Level FlightAware
05:19AM 47.8940 4.6350 317° Northwest 356 410 28,000 -120 Level FlightAware
05:20AM 47.9440 4.5650 317° Northwest 369 425 27,900 -720 Descending FlightAware
05:21AM 48.0130 4.4700 317° Northwest 389 448 26,900 -1,080 Descending FlightAware
05:22AM 48.0590 4.4070 318° Northwest 390 449 26,400 -960 Descending FlightAware
05:22AM 48.1140 4.3310 317° Northwest 388 447 25,700 -1,020 Descending FlightAware
05:23AM 48.1680 4.2550 317° Northwest 385 443 25,000 -1,140 Descending FlightAware
05:24AM 48.2180 4.1850 317° Northwest 386 444 24,200 -1,560 Descending FlightAware
05:24AM 48.2680 4.1160 317° Northwest 380 437 23,000 -2,040 Descending FlightAware
05:25AM 48.3240 4.0360 316° Northwest 373 429 21,500 -1,980 Descending FlightAware
05:26AM 48.3760 3.9640 317° Northwest 369 425 20,200 -1,920 Descending FlightAware
05:26AM 48.4310 3.8860 317° Northwest 362 417 18,800 -1,980 Descending FlightAware
05:27AM 48.4830 3.8120 317° Northwest 360 414 17,400 -1,920 Descending FlightAware
05:28AM 48.5300 3.7450 317° Northwest 349 402 16,200 -1,320 Descending FlightAware
05:28AM 48.5690 3.6610 305° West 352 405 15,600 -840 Descending FlightAware
05:29AM 48.6060 3.5770 304° West 349 402 15,100 -480 Descending FlightAware
05:30AM 48.6400 3.4960 302° West 350 403 15,000 -120 Descending FlightAware
05:31AM 48.6820 3.3990 303° West 350 403 15,000  Level FlightAware
05:31AM 48.7170 3.3160 303° West 350 403 15,000  Level FlightAware
05:32AM 48.7500 3.2380 303° West 350 403 15,000  Level FlightAware
05:33AM 48.7920 3.1400 303° West 349 402 15,000 -60 Level FlightAware
05:34AM 48.8400 3.0250 302° West 347 399 14,900 -480 Descending FlightAware
05:34AM 48.8820 2.9520 311° West 319 367 14,300 -1,020 Descending FlightAware
05:35AM 48.9180 2.8930 313° West 307 353 13,600 -1,260 Descending FlightAware
05:35AM 48.9360 2.8470 301° West 307 353 13,000 -840 Descending FlightAware
05:36AM 48.9330 2.7660 267° West 307 353 12,700 -1,200 Descending FlightAware
05:37AM 48.9280 2.6640 266° West 305 351 11,400 -1,620 Descending FlightAware
05:37AM 48.9240 2.5970 265° West 303 349 10,600 -1,500 Descending FlightAware
05:38AM 48.9200 2.5260 265° West 297 342 9,800 -1,680 Descending FlightAware
05:38AM 48.9180 2.4800 266° West 297 342 9,100 -1,620 Descending FlightAware
05:39AM 48.9160 2.4500 264° West 292 336 8,800 -840 Descending FlightAware
05:39AM 48.9130 2.3910 266° West 275 316 8,500 -780 Descending FlightAware
05:39AM 48.9110 2.3350 267° West 260 299 8,100 -540 Descending FlightAware
05:40AM 48.9090 2.2890 266° West 263 303 8,000 -120 Descending FlightAware
05:40AM 48.9070 2.2350 267° West 262 302 8,000 -120 Level FlightAware
05:41AM 48.9050 2.1870 266° West 260 299 7,900 -780 Descending FlightAware
05:41AM 48.9020 2.1300 265° West 261 300 7,300 -1,200 Descending FlightAware
05:42AM 48.9000 2.0810 266° West 256 295 6,800 -1,200 Descending FlightAware
05:42AM 48.9120 2.0340 291° West 253 291 6,200 -1,140 Descending FlightAware
05:43AM 48.9270 2.0230 334° Northwest 251 289 6,000 -900 Descending FlightAware
05:43AM 48.9540 2.0320 12° North 236 272 5,600 -900 Descending FlightAware
05:43AM 48.9630 2.0520 56° Northeast 238 274 5,400 -1,020 Descending FlightAware
05:43AM 48.9660 2.0770 80° East 234 269 5,100 -900 Descending FlightAware
05:44AM 48.9680 2.1170 86° East 226 260 4,800 -600 Descending FlightAware
05:44AM 48.9710 2.1630 84° East 220 253 4,600 -300 Descending FlightAware
05:45AM 48.9720 2.1870 86° East 223 257 4,600 -420 Level FlightAware
05:45AM 48.9740 2.2310 86° East 208 239 4,300 -900 Descending FlightAware
05:46AM 48.9770 2.2670 83° East 196 226 3,800 -1,200 Descending FlightAware
05:46AM 48.9790 2.3010 85° East 187 215 3,300 -1,200 Descending FlightAware
05:46AM 48.9800 2.3210 86° East 183 211 3,000 -1,080 Descending FlightAware
05:47AM 48.9820 2.3590 85° East 180 207 2,500 -900 Descending FlightAware
05:47AM 48.9840 2.3960 85° East 178 205 2,100 -900 Descending FlightAware
05:48AM 48.9860 2.4310 85° East 162 186 1,600 -900 Descending FlightAware
05:48AM 48.9870 2.4600 87° East 154 177 1,300 -780 Descending FlightAware
05:49AM 48.9890 2.4900 84° East 135 155 900 -780 Descending FlightAware
05:49AM 48.9900 2.5130 86° East 134 154 600 -720 Descending FlightAware
05:49AM 48.9910 2.5320 85° East 137 158 400 -720 Descending FlightAware
05:50AM 48.9920 2.5460 84° East 132 152 200 -780 Descending FlightAware
05:50AM 48.9930 2.5690 86° East 130 150 -540 Descending FlightAware
05:50AM 48.9940 2.5810 83° East 90 104  Level FlightAware
05:51AM 48.9950 2.5940 83° East 31 36  Level FlightAware
05:51AM 48.9960 2.5970 63° Northeast 14 16  Level FlightAware
05:52AM 48.9970 2.5970 360° North 3 3  Level FlightAware
05:53AM 48.9980 2.5970 360° North 14 16  Level FlightAware
05:54AM 49.0000 2.5960 342° North 11 13  Level FlightAware
05:54AM 49.0010 2.5960 360° North 11 13  Level FlightAware
05:54AM 49.0010 2.5930 270° West 16 18  Level FlightAware
05:54AM 49.0010 2.5920 270° West 17 20  Level FlightAware
05:55AM 49.0000 2.5890 243° Southwest 24 28  Level FlightAware
05:55AM 49.0000 2.5840 270° West 17 20  Level FlightAware
05:56AM 49.0020 2.5830 342° North 13 15  Level FlightAware
05:56AM 49.0030 2.5830 360° North 13 15  Level FlightAware
05:57AM 49.0040 2.5840 33° Northeast 8 9  Level FlightAware
05:59AM 49.0128 2.5500 291° West  Level Estimated
06:00AM 49.0128 2.5500 180° South  Level Estimated